createdAt,value
2019-04-11T00:00:59.724Z,13.20
2019-04-11T00:02:00.484Z,11.00
2019-04-11T00:03:00.605Z,11.00
2019-04-11T00:03:59.907Z,11.80
2019-04-11T00:04:59.677Z,11.90
2019-04-11T00:05:59.667Z,10.80
2019-04-11T00:07:00.279Z,12.00
2019-04-11T00:08:00.092Z,13.50
2019-04-11T00:09:00.705Z,13.00
2019-04-11T00:09:59.895Z,12.40
2019-04-11T00:10:59.675Z,11.90
2019-04-11T00:11:59.975Z,13.10
2019-04-11T00:12:59.586Z,11.10
2019-04-11T00:13:59.878Z,14.30
2019-04-11T00:15:00.174Z,11.60
2019-04-11T00:15:59.568Z,13.00
2019-04-11T00:16:59.543Z,11.90
2019-04-11T00:18:00.587Z,13.70
2019-04-11T00:18:59.518Z,12.40
2019-04-11T00:20:00.012Z,11.40
2019-04-11T00:21:00.323Z,11.70
2019-04-11T00:21:59.515Z,15.10
2019-04-11T00:22:59.729Z,13.10
2019-04-11T00:24:00.661Z,11.90
2019-04-11T00:24:59.458Z,12.00
2019-04-11T00:26:00.063Z,10.80
2019-04-11T00:27:00.353Z,12.50
2019-04-11T00:27:59.440Z,15.20
2019-04-11T00:28:59.406Z,12.40
2019-04-11T00:29:59.700Z,12.20
2019-04-11T00:30:59.398Z,12.40
2019-04-11T00:31:59.374Z,12.70
2019-04-11T00:33:00.161Z,16.30
2019-04-11T00:33:59.465Z,13.80
2019-04-11T00:34:59.447Z,12.30
2019-04-11T00:35:59.904Z,11.40
2019-04-11T00:36:59.314Z,13.00
2019-04-11T00:37:59.376Z,12.70
2019-04-11T00:38:59.379Z,12.00
2019-04-11T00:39:59.652Z,12.70
2019-04-11T00:40:59.744Z,12.30
2019-04-11T00:41:59.287Z,12.40
2019-04-11T00:42:59.247Z,11.80
2019-04-11T00:43:59.234Z,12.60
2019-04-11T00:44:59.229Z,11.40
2019-04-11T00:46:00.162Z,13.60
2019-04-11T00:46:59.213Z,13.20
2019-04-11T00:47:59.625Z,11.70
2019-04-11T00:48:59.825Z,11.90
2019-04-11T00:49:59.168Z,11.60
2019-04-11T00:50:59.347Z,13.10
2019-04-11T00:52:00.304Z,13.10
2019-04-11T00:52:59.134Z,12.80
2019-04-11T00:53:59.142Z,11.90
2019-04-11T00:54:59.490Z,11.30
2019-04-11T00:55:59.871Z,10.90
2019-04-11T00:56:59.090Z,10.30
2019-04-11T00:57:59.223Z,11.40
2019-04-11T00:59:00.186Z,12.20
2019-04-11T00:59:59.053Z,11.40
2019-04-11T01:00:59.647Z,12.60
2019-04-11T01:01:59.032Z,12.40
2019-04-11T01:02:59.930Z,11.80
2019-04-11T01:03:59.228Z,14.40
2019-04-11T01:04:59.303Z,13.20
2019-04-11T01:05:58.992Z,12.30
2019-04-11T01:06:58.976Z,11.90
2019-04-11T01:07:59.680Z,13.80
2019-04-11T01:08:59.909Z,11.40
2019-04-11T01:09:58.991Z,11.70
2019-04-11T01:10:59.389Z,13.10
2019-04-11T01:11:58.919Z,11.90
2019-04-11T01:12:58.909Z,11.40
2019-04-11T01:13:59.512Z,13.80
2019-04-11T01:14:59.455Z,13.00
2019-04-11T01:15:58.888Z,13.70
2019-04-11T01:16:59.104Z,12.50
2019-04-11T01:17:58.852Z,14.10
2019-04-11T01:18:58.843Z,12.30
2019-04-11T01:19:59.434Z,14.50
2019-04-11T01:20:59.853Z,14.00
2019-04-11T01:21:59.530Z,11.50
2019-04-11T01:22:58.802Z,12.90
2019-04-11T01:23:59.623Z,13.30
2019-04-11T01:24:59.857Z,12.40
2019-04-11T01:25:59.090Z,12.10
2019-04-11T01:26:59.339Z,13.70
2019-04-11T01:27:58.744Z,13.50
2019-04-11T01:28:58.864Z,15.50
2019-04-11T01:29:59.860Z,12.90
2019-04-11T01:30:58.705Z,12.80
2019-04-11T01:31:58.724Z,12.20
2019-04-11T01:32:59.026Z,14.50
2019-04-11T01:33:58.671Z,13.20
2019-04-11T01:34:59.200Z,12.70
2019-04-11T01:35:58.650Z,12.10
2019-04-11T01:36:59.624Z,14.80
2019-04-11T01:37:59.815Z,13.70
2019-04-11T01:38:58.912Z,12.20
2019-04-11T01:39:59.349Z,12.60
2019-04-11T01:40:58.593Z,12.50
2019-04-11T01:41:58.759Z,12.70
2019-04-11T01:42:59.622Z,13.60
2019-04-11T01:44:02.135Z,13.60
2019-04-11T01:44:59.552Z,13.00
2019-04-11T01:45:58.537Z,14.90
2019-04-11T01:46:58.528Z,14.20
2019-04-11T01:47:59.444Z,12.90
2019-04-11T01:48:59.704Z,12.60
2019-04-11T01:49:58.753Z,13.30
2019-04-11T01:50:59.095Z,13.50
2019-04-11T01:51:58.471Z,13.90
2019-04-11T01:52:58.496Z,14.40
2019-04-11T01:53:59.417Z,12.30
2019-04-11T01:54:59.712Z,13.70
2019-04-11T01:55:58.865Z,15.90
2019-04-11T01:56:58.414Z,13.00
2019-04-11T01:57:58.401Z,12.40
2019-04-11T01:58:59.392Z,12.40
2019-04-11T01:59:58.380Z,12.40
2019-04-11T02:00:58.854Z,13.20
2019-04-11T02:01:58.356Z,13.90
2019-04-11T02:02:59.064Z,12.80
2019-04-11T02:03:59.380Z,14.40
2019-04-11T02:04:58.717Z,14.20
2019-04-11T02:05:59.169Z,12.80
2019-04-11T02:06:58.423Z,14.10
2019-04-11T02:07:58.710Z,15.00
2019-04-11T02:08:58.284Z,13.40
2019-04-11T02:09:58.267Z,14.00
2019-04-11T02:10:59.274Z,14.70
2019-04-11T02:11:58.285Z,13.80
2019-04-11T02:12:58.240Z,12.90
2019-04-11T02:14:09.853Z,13.40
2019-04-11T02:14:59.775Z,14.70
2019-04-11T02:15:58.883Z,14.10
2019-04-11T02:16:59.297Z,16.20
2019-04-11T02:17:59.222Z,13.30
2019-04-11T02:18:58.165Z,14.20
2019-04-11T02:19:58.686Z,13.90
2019-04-11T02:20:58.145Z,13.10
2019-04-11T02:21:58.132Z,14.90
2019-04-11T02:22:59.101Z,15.80
2019-04-11T02:23:58.109Z,13.20
2019-04-11T02:24:59.130Z,14.50
2019-04-11T02:25:58.088Z,14.30
2019-04-11T02:26:58.721Z,14.00
2019-04-11T02:27:58.154Z,15.50
2019-04-11T02:28:59.237Z,15.80
2019-04-11T02:29:58.612Z,14.50
2019-04-11T02:30:58.040Z,14.30
2019-04-11T02:32:01.226Z,13.70
2019-04-11T02:33:00.357Z,15.20
2019-04-11T02:33:59.372Z,14.00
2019-04-11T02:34:59.333Z,15.60
2019-04-11T02:35:58.126Z,13.60
2019-04-11T02:36:59.702Z,13.70
2019-04-11T02:37:59.153Z,15.00
2019-04-11T02:39:02.200Z,16.30
2019-04-11T02:40:00.077Z,16.10
2019-04-11T02:40:57.962Z,19.70
2019-04-11T02:41:59.112Z,14.80
2019-04-11T02:42:59.277Z,13.10
2019-04-11T02:43:59.277Z,14.20
2019-04-11T02:45:13.430Z,18.50
2019-04-11T02:46:11.930Z,16.90
2019-04-11T02:47:05.232Z,15.80
2019-04-11T02:47:59.459Z,14.40
2019-04-11T02:48:59.539Z,13.10
2019-04-11T02:49:59.154Z,13.00
2019-04-11T02:50:58.395Z,13.90
2019-04-11T02:51:58.566Z,15.40
2019-04-11T02:52:58.543Z,13.50
2019-04-11T02:53:58.970Z,13.80
2019-04-11T02:54:57.776Z,15.60
2019-04-11T02:55:58.321Z,14.40
2019-04-11T02:56:59.802Z,13.30
2019-04-11T02:57:59.770Z,16.50
2019-04-11T02:58:57.711Z,15.60
2019-04-11T02:59:57.718Z,14.10
2019-04-11T03:01:00.989Z,13.80
2019-04-11T03:02:00.277Z,14.70
2019-04-11T03:02:59.454Z,14.10
2019-04-11T03:03:59.077Z,14.80
2019-04-11T03:04:57.671Z,14.10
2019-04-11T03:05:59.505Z,15.60
2019-04-11T03:06:57.648Z,14.60
2019-04-11T03:07:58.410Z,15.00
2019-04-11T03:08:59.259Z,16.20
2019-04-11T03:09:58.073Z,14.50
2019-04-11T03:10:58.108Z,15.60
2019-04-11T03:11:59.068Z,15.30
2019-04-11T03:12:58.969Z,14.50
2019-04-11T03:13:58.321Z,14.10
2019-04-11T03:15:23.013Z,13.60
2019-04-11T03:16:11.072Z,17.90
2019-04-11T03:17:10.018Z,14.70
2019-04-11T03:18:02.072Z,16.20
2019-04-11T03:19:16.037Z,13.60
2019-04-11T03:20:10.595Z,14.30
2019-04-11T03:21:04.566Z,14.70
2019-04-11T03:21:59.381Z,14.40
2019-04-11T03:23:04.083Z,14.30
2019-04-11T03:23:59.317Z,13.80
2019-04-11T03:24:58.327Z,16.80
2019-04-11T03:25:57.432Z,14.40
2019-04-11T03:27:00.357Z,14.00
2019-04-11T03:27:59.008Z,14.30
2019-04-11T03:28:57.857Z,14.60
2019-04-11T03:29:57.996Z,17.00
2019-04-11T03:31:29.400Z,14.20
2019-04-11T03:33:57.971Z,13.80
2019-04-11T03:34:53.404Z,15.60
2019-04-11T03:35:35.578Z,15.80
2019-04-11T03:37:39.108Z,15.50
2019-04-11T03:38:21.228Z,12.70
2019-04-11T03:39:16.932Z,16.00
2019-04-11T03:40:17.297Z,13.40
2019-04-11T03:41:17.344Z,13.80
2019-04-11T03:42:14.101Z,14.40
2019-04-11T03:43:08.945Z,14.40
2019-04-11T03:44:04.447Z,14.80
2019-04-11T03:45:21.019Z,13.80
2019-04-11T03:46:15.852Z,13.60
2019-04-11T03:47:12.754Z,12.90
2019-04-11T03:48:12.524Z,15.00
2019-04-11T03:49:06.132Z,13.50
2019-04-11T03:50:05.060Z,14.20
2019-04-11T03:50:59.431Z,13.90
2019-04-11T03:51:57.110Z,11.30
2019-04-11T03:52:59.473Z,13.10
2019-04-11T03:53:58.894Z,13.50
2019-04-11T03:54:58.892Z,13.30
2019-04-11T03:55:57.089Z,12.50
2019-04-11T03:56:57.371Z,13.60
2019-04-11T03:57:59.189Z,12.30
2019-04-11T03:58:57.813Z,14.50
2019-04-11T03:59:58.597Z,12.50
2019-04-11T04:01:02.823Z,14.20
2019-04-11T04:01:59.694Z,12.10
2019-04-11T04:02:58.096Z,14.30
2019-04-11T04:03:58.191Z,13.60
2019-04-11T04:04:57.121Z,14.60
2019-04-11T04:05:57.412Z,15.60
2019-04-11T04:06:57.815Z,16.40
2019-04-11T04:07:58.210Z,15.60
2019-04-11T04:08:58.492Z,13.40
2019-04-11T04:09:58.330Z,14.50
2019-04-11T04:10:58.282Z,14.10
2019-04-11T04:11:58.669Z,14.20
2019-04-11T04:12:58.345Z,13.20
2019-04-11T04:13:56.955Z,14.90
2019-04-11T04:14:56.855Z,13.40
2019-04-11T04:16:07.857Z,13.60
2019-04-11T04:17:01.646Z,14.90
2019-04-11T04:17:59.539Z,14.40
2019-04-11T04:18:58.472Z,13.70
2019-04-11T04:19:56.845Z,14.80
2019-04-11T04:20:57.641Z,14.70
2019-04-11T04:21:57.595Z,13.20
2019-04-11T04:22:57.145Z,13.60
2019-04-11T04:23:59.343Z,14.20
2019-04-11T04:24:56.757Z,14.50
2019-04-11T04:25:56.720Z,13.10
2019-04-11T04:26:57.613Z,15.70
2019-04-11T04:27:56.987Z,15.10
2019-04-11T04:28:57.770Z,15.30
2019-04-11T04:29:58.538Z,14.40
2019-04-11T04:30:57.941Z,14.40
2019-04-11T04:31:57.294Z,15.70
2019-04-11T04:32:57.324Z,13.60
2019-04-11T04:33:57.734Z,16.30
2019-04-11T04:34:58.391Z,17.30
2019-04-11T04:35:57.908Z,14.50
2019-04-11T04:36:57.880Z,15.90
2019-04-11T04:37:57.074Z,16.30
2019-04-11T04:38:57.121Z,16.10
2019-04-11T04:40:13.577Z,16.40
2019-04-11T04:41:13.477Z,16.60
2019-04-11T04:42:06.063Z,17.80
2019-04-11T04:43:00.245Z,16.60
2019-04-11T04:43:57.676Z,18.10
2019-04-11T04:44:58.136Z,16.90
2019-04-11T04:46:11.468Z,18.90
2019-04-11T04:47:10.206Z,19.70
2019-04-11T04:48:03.483Z,17.40
2019-04-11T04:48:58.492Z,18.40
2019-04-11T04:49:57.070Z,20.30
2019-04-11T04:50:57.244Z,19.90
2019-04-11T04:51:56.439Z,17.20
2019-04-11T04:52:58.077Z,20.90
2019-04-11T04:53:57.974Z,22.50
2019-04-11T04:54:57.714Z,20.10
2019-04-11T04:55:57.401Z,18.70
2019-04-11T04:56:56.364Z,20.10
2019-04-11T04:57:57.735Z,18.50
2019-04-11T04:58:58.241Z,18.10
2019-04-11T04:59:57.725Z,17.30
2019-04-11T05:00:58.401Z,17.30
2019-04-11T05:01:56.318Z,18.00
2019-04-11T05:02:57.105Z,19.20
2019-04-11T05:03:56.830Z,18.40
2019-04-11T05:04:56.636Z,16.60
2019-04-11T05:05:56.278Z,19.80
2019-04-11T05:06:56.349Z,16.50
2019-04-11T05:07:56.824Z,16.50
2019-04-11T05:08:57.946Z,16.20
2019-04-11T05:09:56.667Z,18.90
2019-04-11T05:10:57.726Z,17.10
2019-04-11T05:11:56.204Z,16.90
2019-04-11T05:12:56.973Z,17.80
2019-04-11T05:13:56.650Z,17.00
2019-04-11T05:14:56.218Z,17.90
2019-04-11T05:16:06.830Z,17.20
2019-04-11T05:16:58.092Z,15.30
2019-04-11T05:17:57.565Z,18.60
2019-04-11T05:18:56.677Z,21.00
2019-04-11T05:19:56.496Z,18.50
2019-04-11T05:20:56.976Z,18.30
2019-04-11T05:21:56.079Z,18.30
2019-04-11T05:22:56.071Z,19.00
2019-04-11T05:23:56.674Z,18.30
2019-04-11T05:25:00.103Z,17.30
2019-04-11T05:25:57.194Z,19.50
2019-04-11T05:26:56.023Z,22.60
2019-04-11T05:27:56.027Z,18.00
2019-04-11T05:28:57.102Z,19.70
2019-04-11T05:29:56.011Z,18.30
2019-04-11T05:30:55.981Z,22.10
2019-04-11T05:31:56.718Z,16.90
2019-04-11T05:32:55.956Z,19.40
2019-04-11T05:33:56.105Z,18.00
2019-04-11T05:34:55.942Z,18.70
2019-04-11T05:35:56.365Z,20.20
2019-04-11T05:36:55.927Z,21.20
2019-04-11T05:37:55.901Z,19.00
2019-04-11T05:38:55.892Z,20.10
2019-04-11T05:39:56.699Z,19.60
2019-04-11T05:40:56.675Z,18.60
2019-04-11T05:41:56.692Z,18.30
2019-04-11T05:42:55.850Z,19.60
2019-04-11T05:43:55.904Z,17.50
2019-04-11T05:44:56.871Z,16.80
2019-04-11T05:45:56.744Z,18.30
2019-04-11T05:47:00.336Z,17.70
2019-04-11T05:47:58.325Z,17.90
2019-04-11T05:49:00.543Z,19.30
2019-04-11T05:49:56.895Z,19.10
2019-04-11T05:50:56.199Z,18.10
2019-04-11T05:51:58.609Z,17.20
2019-04-11T05:52:56.733Z,17.90
2019-04-11T05:53:55.901Z,18.30
2019-04-11T05:54:55.710Z,17.80
2019-04-11T05:55:55.698Z,18.50
2019-04-11T05:56:57.796Z,19.80
2019-04-11T05:57:55.689Z,18.40
2019-04-11T05:58:55.680Z,18.20
2019-04-11T05:59:56.578Z,18.80
2019-04-11T06:00:55.974Z,20.10
2019-04-11T06:01:55.631Z,20.60
2019-04-11T06:02:55.628Z,18.50
2019-04-11T06:03:55.621Z,20.00
2019-04-11T06:04:56.163Z,17.20
2019-04-11T06:05:59.938Z,19.60
2019-04-11T06:06:58.143Z,19.90
2019-04-11T06:07:57.584Z,20.00
2019-04-11T06:08:58.362Z,19.00
2019-04-11T06:09:56.612Z,17.70
2019-04-11T06:10:56.623Z,19.20
2019-04-11T06:11:57.527Z,18.20
2019-04-11T06:12:55.504Z,16.70
2019-04-11T06:13:56.521Z,17.40
2019-04-11T06:14:55.562Z,18.00
2019-04-11T06:15:59.480Z,19.80
2019-04-11T06:16:57.533Z,18.90
2019-04-11T06:17:56.557Z,19.60
2019-04-11T06:18:57.156Z,17.90
2019-04-11T06:19:55.699Z,18.20
2019-04-11T06:20:55.686Z,18.60
2019-04-11T06:21:56.070Z,18.20
2019-04-11T06:22:56.190Z,20.70
2019-04-11T06:23:55.896Z,18.00
2019-04-11T06:24:56.449Z,21.80
2019-04-11T06:25:55.637Z,19.30
2019-04-11T06:26:55.344Z,20.40
2019-04-11T06:27:55.782Z,17.90
2019-04-11T06:28:56.907Z,20.10
2019-04-11T06:29:55.310Z,19.00
2019-04-11T06:30:55.316Z,19.90
2019-04-11T06:31:55.288Z,24.00
2019-04-11T06:32:56.278Z,20.30
2019-04-11T06:33:55.265Z,19.80
2019-04-11T06:34:55.596Z,18.40
2019-04-11T06:35:55.259Z,18.80
2019-04-11T06:36:55.292Z,18.30
2019-04-11T06:37:56.281Z,18.10
2019-04-11T06:38:55.208Z,16.80
2019-04-11T06:39:57.779Z,17.40
2019-04-11T06:40:55.202Z,19.40
2019-04-11T06:41:55.177Z,18.90
2019-04-11T06:42:56.030Z,17.30
2019-04-11T06:43:56.324Z,20.10
2019-04-11T06:44:56.341Z,16.80
2019-04-11T06:45:55.147Z,19.20
2019-04-11T06:46:58.862Z,16.60
2019-04-11T06:47:56.979Z,17.90
2019-04-11T06:48:56.102Z,18.20
2019-04-11T06:49:55.154Z,17.40
2019-04-11T06:50:55.539Z,17.40
2019-04-11T06:51:55.151Z,16.20
2019-04-11T06:52:55.054Z,18.60
2019-04-11T06:53:55.037Z,16.70
2019-04-11T06:54:56.106Z,19.50
2019-04-11T06:55:55.159Z,17.60
2019-04-11T06:56:55.017Z,18.40
2019-04-11T06:57:54.996Z,17.90
2019-04-11T06:58:55.595Z,17.70
2019-04-11T06:59:54.973Z,18.10
2019-04-11T07:00:55.762Z,34.80
2019-04-11T07:01:55.076Z,17.60
2019-04-11T07:02:55.171Z,17.90
2019-04-11T07:03:55.265Z,15.60
2019-04-11T07:04:54.915Z,16.80
2019-04-11T07:05:55.298Z,19.50
2019-04-11T07:06:55.828Z,19.80
2019-04-11T07:07:55.822Z,20.00
2019-04-11T07:08:54.867Z,17.70
2019-04-11T07:09:55.536Z,18.50
2019-04-11T07:10:55.254Z,17.40
2019-04-11T07:11:54.922Z,17.90
2019-04-11T07:12:55.993Z,18.30
2019-04-11T07:13:55.513Z,18.90
2019-04-11T07:14:55.145Z,20.20
2019-04-11T07:15:54.892Z,16.60
2019-04-11T07:17:04.124Z,15.40
2019-04-11T07:17:56.728Z,17.70
2019-04-11T07:18:54.849Z,16.90
2019-04-11T07:19:55.797Z,17.50
2019-04-11T07:20:54.745Z,19.60
2019-04-11T07:21:54.720Z,15.70
2019-04-11T07:22:55.301Z,19.90
2019-04-11T07:23:55.555Z,16.80
2019-04-11T07:24:55.258Z,16.00
2019-04-11T07:25:55.883Z,18.40
2019-04-11T07:26:54.664Z,19.20
2019-04-11T07:27:54.652Z,15.60
2019-04-11T07:28:54.659Z,16.00
2019-04-11T07:29:54.636Z,18.30
2019-04-11T07:30:54.620Z,16.90
2019-04-11T07:31:54.834Z,15.80
2019-04-11T07:32:55.043Z,18.00
2019-04-11T07:33:54.613Z,17.60
2019-04-11T07:34:54.574Z,15.60
2019-04-11T07:35:55.133Z,16.30
2019-04-11T07:36:55.756Z,18.00
2019-04-11T07:37:55.399Z,17.40
2019-04-11T07:38:54.533Z,18.80
2019-04-11T07:39:54.533Z,18.20
2019-04-11T07:40:54.661Z,17.10
2019-04-11T07:41:56.084Z,16.50
2019-04-11T07:42:59.301Z,17.50
2019-04-11T07:43:56.497Z,17.80
2019-04-11T07:44:55.390Z,16.70
2019-04-11T07:45:54.449Z,15.90
2019-04-11T07:46:54.438Z,17.30
2019-04-11T07:47:54.861Z,16.00
2019-04-11T07:48:54.816Z,17.50
2019-04-11T07:49:56.517Z,15.80
2019-04-11T07:50:55.401Z,16.70
2019-04-11T07:51:54.390Z,15.80
2019-04-11T07:52:54.365Z,15.40
2019-04-11T07:53:54.689Z,16.60
2019-04-11T07:54:54.345Z,16.10
2019-04-11T07:55:55.411Z,14.40
2019-04-11T07:56:55.074Z,18.50
2019-04-11T07:57:54.726Z,15.80
2019-04-11T07:58:54.348Z,18.80
2019-04-11T07:59:55.567Z,19.40
2019-04-11T08:00:54.795Z,17.10
2019-04-11T08:01:54.954Z,17.90
2019-04-11T08:02:55.252Z,15.10
2019-04-11T08:03:54.242Z,14.60
2019-04-11T08:04:55.321Z,14.50
2019-04-11T08:05:54.466Z,15.00
2019-04-11T08:06:54.317Z,13.70
2019-04-11T08:07:55.115Z,14.50
2019-04-11T08:08:54.186Z,14.90
2019-04-11T08:09:54.979Z,14.20
2019-04-11T08:10:54.670Z,15.50
2019-04-11T08:11:54.166Z,16.90
2019-04-11T08:12:54.141Z,16.70
2019-04-11T08:13:56.336Z,17.10
2019-04-11T08:14:55.087Z,15.50
2019-04-11T08:15:54.110Z,14.70
2019-04-11T08:16:55.262Z,16.90
2019-04-11T08:17:54.339Z,15.00
2019-04-11T08:18:54.074Z,15.00
2019-04-11T08:19:55.264Z,14.90
2019-04-11T08:20:54.051Z,14.30
2019-04-11T08:21:54.585Z,13.10
2019-04-11T08:22:55.057Z,15.90
2019-04-11T08:23:54.202Z,15.80
2019-04-11T08:24:54.006Z,15.10
2019-04-11T08:25:53.994Z,13.00
2019-04-11T08:26:53.983Z,12.60
2019-04-11T08:28:00.258Z,12.90
2019-04-11T08:29:05.333Z,13.00
2019-04-11T08:29:54.952Z,16.10
2019-04-11T08:30:54.942Z,12.40
2019-04-11T08:31:56.205Z,11.70
2019-04-11T08:32:53.962Z,16.80
2019-04-11T08:33:55.055Z,13.60
2019-04-11T08:34:53.913Z,14.70
2019-04-11T08:35:55.314Z,11.70
2019-04-11T08:36:54.896Z,13.20
2019-04-11T08:37:53.996Z,12.70
2019-04-11T08:38:53.862Z,14.50
2019-04-11T08:39:53.843Z,13.30
2019-04-11T08:40:53.823Z,11.30
2019-04-11T08:41:53.826Z,15.80
2019-04-11T08:42:54.841Z,12.50
2019-04-11T08:43:53.818Z,12.10
2019-04-11T08:44:54.206Z,13.90
2019-04-11T08:45:54.145Z,11.10
2019-04-11T08:46:54.008Z,10.70
2019-04-11T08:47:57.258Z,11.40
2019-04-11T08:48:54.760Z,13.90
2019-04-11T08:49:54.118Z,12.10
2019-04-11T08:50:54.644Z,11.80
2019-04-11T08:51:53.805Z,12.10
2019-04-11T08:52:54.200Z,12.10
2019-04-11T08:53:53.683Z,12.30
2019-04-11T08:54:53.684Z,13.80
2019-04-11T08:55:57.151Z,13.50
2019-04-11T08:56:55.757Z,13.10
2019-04-11T08:57:53.631Z,10.70
2019-04-11T08:58:53.620Z,13.70
2019-04-11T08:59:53.632Z,11.10
2019-04-11T09:00:56.145Z,11.80
2019-04-11T09:01:53.964Z,11.10
2019-04-11T09:02:53.574Z,10.90
2019-04-11T09:04:02.089Z,9.90
2019-04-11T09:05:03.999Z,12.70
2019-04-11T09:05:55.297Z,15.60
2019-04-11T09:06:54.749Z,13.60
2019-04-11T09:07:54.123Z,13.80
2019-04-11T09:08:54.402Z,10.60
2019-04-11T09:09:53.721Z,11.60
2019-04-11T09:10:53.498Z,12.90
2019-04-11T09:11:54.116Z,10.20
2019-04-11T09:12:53.459Z,13.60
2019-04-11T09:13:53.591Z,12.30
2019-04-11T09:14:54.688Z,11.80
2019-04-11T09:15:53.439Z,11.80
2019-04-11T09:16:54.145Z,12.70
2019-04-11T09:17:58.913Z,13.30
2019-04-11T09:18:54.478Z,14.30
2019-04-11T09:19:53.383Z,13.60
2019-04-11T09:20:53.905Z,13.80
2019-04-11T09:21:53.358Z,12.10
2019-04-11T09:22:53.415Z,14.50
2019-04-11T09:23:54.296Z,14.50
2019-04-11T09:24:53.331Z,12.00
2019-04-11T09:25:54.914Z,12.20
2019-04-11T09:26:53.301Z,13.10
2019-04-11T09:27:54.567Z,13.70
2019-04-11T09:28:53.626Z,10.70
2019-04-11T09:29:54.268Z,10.40
2019-04-11T09:30:53.285Z,11.30
2019-04-11T09:31:53.850Z,10.90
2019-04-11T09:32:53.235Z,9.80
2019-04-11T09:33:53.278Z,11.10
2019-04-11T09:34:54.203Z,12.70
2019-04-11T09:35:53.359Z,10.70
2019-04-11T09:36:53.463Z,10.60
2019-04-11T09:37:53.806Z,11.50
2019-04-11T09:38:53.169Z,11.30
2019-04-11T09:39:53.238Z,12.70
2019-04-11T09:40:54.231Z,11.90
2019-04-11T09:41:53.161Z,11.00
2019-04-11T09:42:53.537Z,12.10
2019-04-11T09:43:53.109Z,9.30
2019-04-11T09:44:53.194Z,10.40
2019-04-11T09:45:54.171Z,10.20
2019-04-11T09:46:53.075Z,10.00
2019-04-11T09:47:57.704Z,10.70
2019-04-11T09:48:54.054Z,9.90
2019-04-11T09:49:53.764Z,9.60
2019-04-11T09:50:53.239Z,11.20
2019-04-11T09:51:53.019Z,10.20
2019-04-11T09:52:54.469Z,9.80
2019-04-11T09:53:52.997Z,9.60
2019-04-11T09:54:52.985Z,10.00
2019-04-11T09:55:53.731Z,9.80
2019-04-11T09:56:53.972Z,10.50
2019-04-11T09:57:52.954Z,11.00
2019-04-11T09:58:52.955Z,10.30
2019-04-11T09:59:53.923Z,9.90
2019-04-11T10:00:52.968Z,10.30
2019-04-11T10:01:54.032Z,9.60
2019-04-11T10:02:52.897Z,10.70
2019-04-11T10:03:52.971Z,10.60
2019-04-11T10:04:52.875Z,13.00
2019-04-11T10:05:52.861Z,11.40
2019-04-11T10:06:53.024Z,11.40
2019-04-11T10:07:52.836Z,11.90
2019-04-11T10:08:52.825Z,12.40
2019-04-11T10:09:54.189Z,10.20
2019-04-11T10:10:53.262Z,10.80
2019-04-11T10:11:52.791Z,12.20
2019-04-11T10:12:54.124Z,9.10
2019-04-11T10:13:53.281Z,10.40
2019-04-11T10:14:53.595Z,11.00
2019-04-11T10:15:53.643Z,9.30
2019-04-11T10:16:52.736Z,12.60
2019-04-11T10:17:52.723Z,10.60
2019-04-11T10:18:53.641Z,12.00
2019-04-11T10:19:53.993Z,10.40
2019-04-11T10:20:52.981Z,10.30
2019-04-11T10:21:52.678Z,10.70
2019-04-11T10:22:52.666Z,10.50
2019-04-11T10:23:53.346Z,13.20
2019-04-11T10:24:52.644Z,10.90
2019-04-11T10:25:53.778Z,9.80
2019-04-11T10:26:52.623Z,12.10
2019-04-11T10:27:53.119Z,11.20
2019-04-11T10:28:53.604Z,11.50
2019-04-11T10:29:52.629Z,11.40
2019-04-11T10:30:53.635Z,10.90
2019-04-11T10:31:52.827Z,10.30
2019-04-11T10:32:52.552Z,11.10
2019-04-11T10:33:53.191Z,11.20
2019-04-11T10:34:52.530Z,11.10
2019-04-11T10:35:52.534Z,9.90
2019-04-11T10:36:53.660Z,9.70
2019-04-11T10:37:52.496Z,11.60
2019-04-11T10:38:52.976Z,10.60
2019-04-11T10:39:53.584Z,13.30
2019-04-11T10:40:52.487Z,10.80
2019-04-11T10:41:53.737Z,10.60
2019-04-11T10:42:52.442Z,10.20
2019-04-11T10:43:53.681Z,10.30
2019-04-11T10:44:52.416Z,9.30
2019-04-11T10:45:53.130Z,10.50
2019-04-11T10:46:52.415Z,11.50
2019-04-11T10:47:54.307Z,9.90
2019-04-11T10:48:52.835Z,10.10
2019-04-11T10:49:52.651Z,11.50
2019-04-11T10:50:52.774Z,9.60
2019-04-11T10:51:52.340Z,10.20
2019-04-11T10:52:52.985Z,9.80
2019-04-11T10:53:52.315Z,10.30
2019-04-11T10:54:53.299Z,11.10
2019-04-11T10:55:52.318Z,11.00
2019-04-11T10:56:52.281Z,10.10
2019-04-11T10:57:52.269Z,12.50
2019-04-11T10:58:53.302Z,10.60
2019-04-11T10:59:52.248Z,12.10
2019-04-11T11:00:52.235Z,11.30
2019-04-11T11:01:52.670Z,10.00
2019-04-11T11:02:52.212Z,11.00
2019-04-11T11:03:53.448Z,10.30
2019-04-11T11:04:52.634Z,10.50
2019-04-11T11:05:53.195Z,10.70
2019-04-11T11:06:52.194Z,9.40
2019-04-11T11:07:53.006Z,12.00
2019-04-11T11:08:53.210Z,13.30
2019-04-11T11:09:52.569Z,9.30
2019-04-11T11:10:52.188Z,10.60
2019-04-11T11:11:52.589Z,12.70
2019-04-11T11:12:52.114Z,10.60
2019-04-11T11:13:52.134Z,10.80
2019-04-11T11:14:53.476Z,11.00
2019-04-11T11:15:52.076Z,11.10
2019-04-11T11:16:52.784Z,10.80
2019-04-11T11:18:20.512Z,9.20
2019-04-11T11:19:19.455Z,10.50
2019-04-11T11:20:07.805Z,11.80
2019-04-11T11:20:55.721Z,10.30
2019-04-11T11:21:53.338Z,10.20
2019-04-11T11:22:51.989Z,9.60
2019-04-11T11:23:52.499Z,8.90
2019-04-11T11:24:52.466Z,9.10
2019-04-11T11:25:53.115Z,9.00
2019-04-11T11:26:53.549Z,9.00
2019-04-11T11:27:52.347Z,8.90
2019-04-11T11:28:51.946Z,9.00
2019-04-11T11:29:51.908Z,8.70
2019-04-11T11:30:52.054Z,9.00
2019-04-11T11:31:52.455Z,8.40
2019-04-11T11:32:51.874Z,10.30
2019-04-11T11:33:51.861Z,9.10
2019-04-11T11:34:53.297Z,7.50
2019-04-11T11:35:52.166Z,8.90
2019-04-11T11:36:53.633Z,8.30
2019-04-11T11:37:51.818Z,9.10
2019-04-11T11:38:52.321Z,8.00
2019-04-11T11:39:51.826Z,9.70
2019-04-11T11:40:52.105Z,9.30
2019-04-11T11:41:52.436Z,9.20
2019-04-11T11:42:52.606Z,9.00
2019-04-11T11:43:51.751Z,9.70
2019-04-11T11:44:53.005Z,10.00
2019-04-11T11:45:54.883Z,9.30
2019-04-11T11:46:52.181Z,9.20
2019-04-11T11:47:51.706Z,9.40
2019-04-11T11:48:54.055Z,8.00
2019-04-11T11:49:57.062Z,9.70
2019-04-11T11:50:52.906Z,9.50
2019-04-11T11:51:51.911Z,10.00
2019-04-11T11:52:51.647Z,9.30
2019-04-11T11:53:51.641Z,9.10
2019-04-11T11:54:51.651Z,8.30
2019-04-11T11:55:51.722Z,9.90
2019-04-11T11:56:51.601Z,10.70
2019-04-11T11:57:51.592Z,9.80
2019-04-11T11:58:56.419Z,8.70
2019-04-11T11:59:52.569Z,9.80
2019-04-11T12:00:53.901Z,7.70
2019-04-11T12:01:52.757Z,9.30
2019-04-11T12:02:53.026Z,8.60
2019-04-11T12:03:52.686Z,8.80
2019-04-11T12:04:52.028Z,7.80
2019-04-11T12:05:53.684Z,8.50
2019-04-11T12:06:56.771Z,8.30
2019-04-11T12:07:54.386Z,10.00
2019-04-11T12:08:51.574Z,7.50
2019-04-11T12:09:51.455Z,9.40
2019-04-11T12:10:51.535Z,7.80
2019-04-11T12:11:52.953Z,7.60
2019-04-11T12:12:51.918Z,8.10
2019-04-11T12:13:51.586Z,8.00
2019-04-11T12:14:51.694Z,8.60
2019-04-11T12:15:51.457Z,10.70
2019-04-11T12:16:54.802Z,10.30
2019-04-11T12:17:52.363Z,8.70
2019-04-11T12:18:53.039Z,8.80
2019-04-11T12:19:54.739Z,9.00
2019-04-11T12:20:54.735Z,8.60
2019-04-11T12:21:51.723Z,8.70
2019-04-11T12:22:52.609Z,7.70
2019-04-11T12:24:00.737Z,11.70
2019-04-11T12:24:52.441Z,9.40
2019-04-11T12:25:51.611Z,8.50
2019-04-11T12:26:51.831Z,9.40
2019-04-11T12:27:52.133Z,8.90
2019-04-11T12:28:52.189Z,7.40
2019-04-11T12:29:52.021Z,7.10
2019-04-11T12:30:53.116Z,9.00
2019-04-11T12:31:52.343Z,8.20
2019-04-11T12:32:51.206Z,7.70
2019-04-11T12:33:52.129Z,8.80
2019-04-11T12:34:51.421Z,9.80
2019-04-11T12:35:51.163Z,10.20
2019-04-11T12:36:53.021Z,11.10
2019-04-11T12:37:52.986Z,9.60
2019-04-11T12:38:54.676Z,8.30
2019-04-11T12:39:51.129Z,8.20
2019-04-11T12:40:51.105Z,8.50
2019-04-11T12:41:51.094Z,7.70
2019-04-11T12:42:51.083Z,10.20
2019-04-11T12:43:51.069Z,8.90
2019-04-11T12:44:51.075Z,8.90
2019-04-11T12:45:51.050Z,10.20
2019-04-11T12:46:51.039Z,8.40
2019-04-11T12:47:51.025Z,7.80
2019-04-11T12:48:51.016Z,7.90
2019-04-11T12:49:53.037Z,9.20
2019-04-11T12:50:50.992Z,8.20
2019-04-11T12:51:50.981Z,10.30
2019-04-11T12:52:50.976Z,9.30
2019-04-11T12:53:50.957Z,10.20
2019-04-11T12:54:50.947Z,9.30
2019-04-11T12:55:50.954Z,8.60
2019-04-11T12:56:50.924Z,8.70
2019-04-11T12:57:50.913Z,8.80
2019-04-11T12:58:50.900Z,9.00